sensor_id;sensor_type;location;lat;lon;timestamp;pressure;altitude;pressure_sealevel;temperature;humidity
37202;BME280;37799;52.390;6.136;2023-11-19T00:01:45;100725.19;;;12.96;100.00
37202;BME280;37799;52.390;6.136;2023-11-19T00:04:12;100714.19;;;12.90;100.00
37202;BME280;37799;52.390;6.136;2023-11-19T00:06:37;100711.06;;;13.04;100.00
37202;BME280;37799;52.390;6.136;2023-11-19T00:09:02;100700.28;;;12.91;100.00
37202;BME280;37799;52.390;6.136;2023-11-19T00:11:29;100702.38;;;13.05;100.00
37202;BME280;37799;52.390;6.136;2023-11-19T00:13:54;100706.34;;;13.13;100.00
37202;BME280;37799;52.390;6.136;2023-11-19T00:16:19;100699.00;;;13.01;100.00
37202;BME280;37799;52.390;6.136;2023-11-19T00:18:44;100711.28;;;12.97;100.00
37202;BME280;37799;52.390;6.136;2023-11-19T00:21:10;100701.59;;;13.03;100.00
37202;BME280;37799;52.390;6.136;2023-11-19T00:23:36;100693.34;;;12.91;100.00
37202;BME280;37799;52.390;6.136;2023-11-19T00:26:01;100699.31;;;12.93;100.00
37202;BME280;37799;52.390;6.136;2023-11-19T00:28:27;100692.19;;;13.22;100.00
37202;BME280;37799;52.390;6.136;2023-11-19T00:30:52;100690.91;;;13.32;100.00
37202;BME280;37799;52.390;6.136;2023-11-19T00:33:18;100699.84;;;13.25;100.00
37202;BME280;37799;52.390;6.136;2023-11-19T00:35:43;100694.09;;;13.17;100.00
37202;BME280;37799;52.390;6.136;2023-11-19T00:38:08;100690.50;;;13.21;100.00
37202;BME280;37799;52.390;6.136;2023-11-19T00:40:34;100683.78;;;13.37;100.00
37202;BME280;37799;52.390;6.136;2023-11-19T00:42:59;100680.16;;;13.41;100.00
37202;BME280;37799;52.390;6.136;2023-11-19T00:45:24;100667.81;;;13.24;100.00
37202;BME280;37799;52.390;6.136;2023-11-19T00:47:50;100666.69;;;13.08;100.00
37202;BME280;37799;52.390;6.136;2023-11-19T00:50:16;100665.41;;;13.20;100.00
37202;BME280;37799;52.390;6.136;2023-11-19T00:52:41;100658.81;;;13.10;100.00
37202;BME280;37799;52.390;6.136;2023-11-19T00:55:07;100645.75;;;13.11;100.00
37202;BME280;37799;52.390;6.136;2023-11-19T00:57:32;100629.16;;;13.15;100.00
37202;BME280;37799;52.390;6.136;2023-11-19T01:00:01;100629.16;;;12.93;100.00
37202;BME280;37799;52.390;6.136;2023-11-19T01:02:31;100599.34;;;13.02;100.00
37202;BME280;37799;52.390;6.136;2023-11-19T01:04:57;100603.22;;;12.92;100.00
37202;BME280;37799;52.390;6.136;2023-11-19T01:07:22;100620.38;;;13.18;100.00
37202;BME280;37799;52.390;6.136;2023-11-19T01:09:49;100642.78;;;13.22;100.00
37202;BME280;37799;52.390;6.136;2023-11-19T01:12:14;100649.91;;;13.17;100.00
37202;BME280;37799;52.390;6.136;2023-11-19T01:14:39;100653.50;;;13.13;100.00
37202;BME280;37799;52.390;6.136;2023-11-19T01:17:05;100669.00;;;13.16;100.00
37202;BME280;37799;52.390;6.136;2023-11-19T01:19:30;100670.47;;;13.23;100.00
37202;BME280;37799;52.390;6.136;2023-11-19T01:21:56;100664.91;;;13.32;100.00
37202;BME280;37799;52.390;6.136;2023-11-19T01:24:22;100653.97;;;13.24;100.00
37202;BME280;37799;52.390;6.136;2023-11-19T01:26:47;100664.44;;;13.44;100.00
37202;BME280;37799;52.390;6.136;2023-11-19T01:29:15;100654.63;;;13.29;100.00
37202;BME280;37799;52.390;6.136;2023-11-19T01:31:41;100660.63;;;13.31;100.00
37202;BME280;37799;52.390;6.136;2023-11-19T01:34:07;100638.69;;;13.15;100.00
37202;BME280;37799;52.390;6.136;2023-11-19T01:36:32;100647.13;;;13.21;100.00
37202;BME280;37799;52.390;6.136;2023-11-19T01:38:58;100651.28;;;13.25;100.00
37202;BME280;37799;52.390;6.136;2023-11-19T01:41:23;100639.59;;;13.14;100.00
37202;BME280;37799;52.390;6.136;2023-11-19T01:43:50;100630.59;;;13.00;100.00
37202;BME280;37799;52.390;6.136;2023-11-19T01:46:15;100629.31;;;13.11;100.00
37202;BME280;37799;52.390;6.136;2023-11-19T01:48:42;100624.81;;;13.16;100.00
37202;BME280;37799;52.390;6.136;2023-11-19T01:51:09;100617.09;;;13.13;100.00
37202;BME280;37799;52.390;6.136;2023-11-19T01:53:36;100616.81;;;12.98;100.00
37202;BME280;37799;52.390;6.136;2023-11-19T01:56:04;100618.22;;;13.07;100.00
37202;BME280;37799;52.390;6.136;2023-11-19T01:58:30;100618.34;;;13.04;100.00
37202;BME280;37799;52.390;6.136;2023-11-19T02:00:56;100621.16;;;12.98;100.00
37202;BME280;37799;52.390;6.136;2023-11-19T02:03:23;100611.13;;;12.89;100.00
37202;BME280;37799;52.390;6.136;2023-11-19T02:05:51;100612.66;;;13.16;100.00
37202;BME280;37799;52.390;6.136;2023-11-19T02:08:18;100605.84;;;13.12;100.00
37202;BME280;37799;52.390;6.136;2023-11-19T02:10:43;100591.78;;;12.96;100.00
37202;BME280;37799;52.390;6.136;2023-11-19T02:13:08;100593.66;;;12.92;100.00
37202;BME280;37799;52.390;6.136;2023-11-19T02:15:35;100611.44;;;13.03;100.00
37202;BME280;37799;52.390;6.136;2023-11-19T02:18:20;100610.69;;;12.99;100.00
37202;BME280;37799;52.390;6.136;2023-11-19T02:20:46;100607.09;;;13.04;100.00
37202;BME280;37799;52.390;6.136;2023-11-19T02:23:13;100602.25;;;12.94;100.00
37202;BME280;37799;52.390;6.136;2023-11-19T02:25:40;100602.00;;;13.00;100.00
37202;BME280;37799;52.390;6.136;2023-11-19T02:28:05;100613.97;;;13.05;100.00
37202;BME280;37799;52.390;6.136;2023-11-19T02:30:31;100612.03;;;13.10;100.00
37202;BME280;37799;52.390;6.136;2023-11-19T02:32:58;100612.28;;;13.04;100.00
37202;BME280;37799;52.390;6.136;2023-11-19T02:35:27;100609.00;;;12.98;100.00
37202;BME280;37799;52.390;6.136;2023-11-19T02:37:54;100607.56;;;12.91;100.00
37202;BME280;37799;52.390;6.136;2023-11-19T02:40:19;100609.13;;;12.95;100.00
37202;BME280;37799;52.390;6.136;2023-11-19T02:42:44;100617.88;;;13.15;100.00
37202;BME280;37799;52.390;6.136;2023-11-19T02:45:10;100619.59;;;13.16;100.00
37202;BME280;37799;52.390;6.136;2023-11-19T02:47:40;100624.00;;;13.14;100.00
37202;BME280;37799;52.390;6.136;2023-11-19T02:50:08;100632.59;;;13.16;100.00
37202;BME280;37799;52.390;6.136;2023-11-19T02:52:43;100631.53;;;13.21;100.00
37202;BME280;37799;52.390;6.136;2023-11-19T02:55:10;100625.22;;;13.05;100.00
37202;BME280;37799;52.390;6.136;2023-11-19T02:57:38;100618.50;;;12.99;100.00
37202;BME280;37799;52.390;6.136;2023-11-19T03:00:04;100614.53;;;12.91;100.00
37202;BME280;37799;52.390;6.136;2023-11-19T03:02:39;100610.03;;;12.94;100.00
37202;BME280;37799;52.390;6.136;2023-11-19T03:05:09;100611.31;;;12.84;100.00
37202;BME280;37799;52.390;6.136;2023-11-19T03:07:35;100608.78;;;12.83;100.00
37202;BME280;37799;52.390;6.136;2023-11-19T03:10:00;100608.56;;;12.87;100.00
37202;BME280;37799;52.390;6.136;2023-11-19T03:12:25;100613.19;;;12.81;100.00
37202;BME280;37799;52.390;6.136;2023-11-19T03:14:51;100618.44;;;12.79;100.00
37202;BME280;37799;52.390;6.136;2023-11-19T03:17:16;100620.78;;;12.85;100.00
37202;BME280;37799;52.390;6.136;2023-11-19T03:19:42;100618.91;;;12.89;100.00
37202;BME280;37799;52.390;6.136;2023-11-19T03:22:07;100620.66;;;12.88;100.00
37202;BME280;37799;52.390;6.136;2023-11-19T03:24:32;100625.06;;;12.86;100.00
37202;BME280;37799;52.390;6.136;2023-11-19T03:26:58;100620.78;;;12.85;100.00
37202;BME280;37799;52.390;6.136;2023-11-19T03:29:23;100625.75;;;12.91;100.00
37202;BME280;37799;52.390;6.136;2023-11-19T03:31:48;100629.16;;;12.93;100.00
37202;BME280;37799;52.390;6.136;2023-11-19T03:34:15;100618.69;;;12.95;100.00
37202;BME280;37799;52.390;6.136;2023-11-19T03:36:40;100629.09;;;12.95;100.00
37202;BME280;37799;52.390;6.136;2023-11-19T03:39:06;100622.00;;;12.98;100.00
37202;BME280;37799;52.390;6.136;2023-11-19T03:41:31;100614.47;;;12.92;100.00
37202;BME280;37799;52.390;6.136;2023-11-19T03:43:57;100620.72;;;12.87;100.00
37202;BME280;37799;52.390;6.136;2023-11-19T03:46:22;100615.06;;;12.77;100.00
37202;BME280;37799;52.390;6.136;2023-11-19T03:48:48;100613.31;;;12.78;100.00
37202;BME280;37799;52.390;6.136;2023-11-19T03:51:14;100616.00;;;12.75;100.00
37202;BME280;37799;52.390;6.136;2023-11-19T03:53:46;100599.69;;;12.71;100.00
37202;BME280;37799;52.390;6.136;2023-11-19T03:56:12;100596.22;;;12.49;100.00
37202;BME280;37799;52.390;6.136;2023-11-19T03:58:38;100582.50;;;12.45;100.00
37202;BME280;37799;52.390;6.136;2023-11-19T04:01:13;100591.84;;;12.49;100.00
37202;BME280;37799;52.390;6.136;2023-11-19T04:03:38;100597.63;;;12.57;100.00
37202;BME280;37799;52.390;6.136;2023-11-19T04:06:04;100596.13;;;12.52;100.00
37202;BME280;37799;52.390;6.136;2023-11-19T04:08:29;100599.84;;;12.45;100.00
37202;BME280;37799;52.390;6.136;2023-11-19T04:10:55;100587.88;;;12.40;100.00
37202;BME280;37799;52.390;6.136;2023-11-19T04:13:20;100593.13;;;12.39;100.00
37202;BME280;37799;52.390;6.136;2023-11-19T04:15:45;100595.59;;;12.19;100.00
37202;BME280;37799;52.390;6.136;2023-11-19T04:18:11;100596.72;;;12.35;100.00
37202;BME280;37799;52.390;6.136;2023-11-19T04:20:36;100596.31;;;12.22;100.00
37202;BME280;37799;52.390;6.136;2023-11-19T04:23:01;100595.66;;;12.17;100.00
37202;BME280;37799;52.390;6.136;2023-11-19T04:25:27;100595.06;;;12.09;100.00
37202;BME280;37799;52.390;6.136;2023-11-19T04:27:52;100605.75;;;12.01;100.00
37202;BME280;37799;52.390;6.136;2023-11-19T04:30:18;100607.44;;;12.02;100.00
37202;BME280;37799;52.390;6.136;2023-11-19T04:32:43;100602.19;;;12.04;100.00
37202;BME280;37799;52.390;6.136;2023-11-19T04:35:09;100618.56;;;12.06;100.00
37202;BME280;37799;52.390;6.136;2023-11-19T04:37:34;100633.03;;;12.13;100.00
37202;BME280;37799;52.390;6.136;2023-11-19T04:40:00;100622.41;;;12.19;100.00
37202;BME280;37799;52.390;6.136;2023-11-19T04:42:26;100635.63;;;12.13;100.00
37202;BME280;37799;52.390;6.136;2023-11-19T04:44:51;100643.72;;;12.04;100.00
37202;BME280;37799;52.390;6.136;2023-11-19T04:47:16;100648.69;;;12.10;100.00
37202;BME280;37799;52.390;6.136;2023-11-19T04:49:42;100640.69;;;12.16;100.00
37202;BME280;37799;52.390;6.136;2023-11-19T04:52:08;100636.72;;;12.06;100.00
37202;BME280;37799;52.390;6.136;2023-11-19T04:54:33;100640.03;;;12.11;100.00
37202;BME280;37799;52.390;6.136;2023-11-19T04:56:59;100625.56;;;12.04;100.00
37202;BME280;37799;52.390;6.136;2023-11-19T04:59:24;100617.75;;;12.04;100.00
37202;BME280;37799;52.390;6.136;2023-11-19T05:01:49;100621.88;;;12.09;100.00
37202;BME280;37799;52.390;6.136;2023-11-19T05:04:15;100618.38;;;12.10;100.00
37202;BME280;37799;52.390;6.136;2023-11-19T05:06:41;100623.13;;;12.23;100.00
37202;BME280;37799;52.390;6.136;2023-11-19T05:09:06;100624.03;;;12.22;100.00
37202;BME280;37799;52.390;6.136;2023-11-19T05:11:37;100617.09;;;11.99;100.00
37202;BME280;37799;52.390;6.136;2023-11-19T05:14:03;100620.72;;;12.18;100.00
37202;BME280;37799;52.390;6.136;2023-11-19T05:16:29;100613.44;;;12.28;100.00
37202;BME280;37799;52.390;6.136;2023-11-19T05:18:54;100609.09;;;12.28;100.00
37202;BME280;37799;52.390;6.136;2023-11-19T05:21:20;100610.44;;;12.15;100.00
37202;BME280;37799;52.390;6.136;2023-11-19T05:23:45;100621.50;;;12.20;100.00
37202;BME280;37799;52.390;6.136;2023-11-19T05:26:20;100624.09;;;12.20;100.00
37202;BME280;37799;52.390;6.136;2023-11-19T05:28:46;100635.44;;;12.18;100.00
37202;BME280;37799;52.390;6.136;2023-11-19T05:31:12;100633.75;;;12.17;100.00
37202;BME280;37799;52.390;6.136;2023-11-19T05:33:37;100643.88;;;12.24;100.00
37202;BME280;37799;52.390;6.136;2023-11-19T05:36:03;100640.69;;;12.16;100.00
37202;BME280;37799;52.390;6.136;2023-11-19T05:38:29;100644.31;;;12.12;100.00
37202;BME280;37799;52.390;6.136;2023-11-19T05:40:55;100641.59;;;12.15;100.00
37202;BME280;37799;52.390;6.136;2023-11-19T05:43:20;100637.25;;;12.16;100.00
37202;BME280;37799;52.390;6.136;2023-11-19T05:45:46;100640.81;;;12.13;100.00
37202;BME280;37799;52.390;6.136;2023-11-19T05:48:11;100642.97;;;12.00;100.00
37202;BME280;37799;52.390;6.136;2023-11-19T05:50:37;100644.44;;;12.07;100.00
37202;BME280;37799;52.390;6.136;2023-11-19T05:53:02;100652.47;;;12.01;100.00
37202;BME280;37799;52.390;6.136;2023-11-19T05:55:30;100652.78;;;11.92;100.00
37202;BME280;37799;52.390;6.136;2023-11-19T05:57:56;100642.56;;;11.88;100.00
37202;BME280;37799;52.390;6.136;2023-11-19T06:00:21;100645.94;;;11.90;100.00
37202;BME280;37799;52.390;6.136;2023-11-19T06:02:46;100648.59;;;11.88;100.00
37202;BME280;37799;52.390;6.136;2023-11-19T06:05:12;100651.13;;;11.90;100.00
37202;BME280;37799;52.390;6.136;2023-11-19T06:07:37;100663.09;;;11.94;100.00
37202;BME280;37799;52.390;6.136;2023-11-19T06:10:04;100661.41;;;11.93;100.00
37202;BME280;37799;52.390;6.136;2023-11-19T06:12:30;100659.16;;;11.82;100.00
37202;BME280;37799;52.390;6.136;2023-11-19T06:14:57;100660.00;;;11.82;100.00
37202;BME280;37799;52.390;6.136;2023-11-19T06:17:22;100660.00;;;11.82;100.00
37202;BME280;37799;52.390;6.136;2023-11-19T06:19:47;100643.78;;;11.76;100.00
37202;BME280;37799;52.390;6.136;2023-11-19T06:22:12;100649.34;;;11.92;100.00
37202;BME280;37799;52.390;6.136;2023-11-19T06:24:38;100655.06;;;12.01;100.00
37202;BME280;37799;52.390;6.136;2023-11-19T06:27:03;100647.41;;;11.97;100.00
37202;BME280;37799;52.390;6.136;2023-11-19T06:29:29;100651.88;;;11.93;100.00
37202;BME280;37799;52.390;6.136;2023-11-19T06:31:54;100651.31;;;11.84;100.00
37202;BME280;37799;52.390;6.136;2023-11-19T06:34:20;100652.16;;;11.86;100.00
37202;BME280;37799;52.390;6.136;2023-11-19T06:36:45;100644.94;;;11.94;100.00
37202;BME280;37799;52.390;6.136;2023-11-19T06:39:10;100647.03;;;11.82;100.00
37202;BME280;37799;52.390;6.136;2023-11-19T06:41:36;100649.28;;;11.67;100.00
37202;BME280;37799;52.390;6.136;2023-11-19T06:44:03;100654.97;;;11.78;100.00
37202;BME280;37799;52.390;6.136;2023-11-19T06:46:30;100662.00;;;11.74;100.00
37202;BME280;37799;52.390;6.136;2023-11-19T06:48:55;100655.53;;;11.88;100.00
37202;BME280;37799;52.390;6.136;2023-11-19T06:51:20;100664.53;;;11.76;100.00
37202;BME280;37799;52.390;6.136;2023-11-19T06:53:45;100652.88;;;11.63;100.00
37202;BME280;37799;52.390;6.136;2023-11-19T06:56:24;100662.09;;;11.71;100.00
37202;BME280;37799;52.390;6.136;2023-11-19T06:58:50;100660.19;;;11.76;100.00
37202;BME280;37799;52.390;6.136;2023-11-19T07:01:16;100657.72;;;11.73;100.00
37202;BME280;37799;52.390;6.136;2023-11-19T07:03:44;100659.28;;;11.79;100.00
37202;BME280;37799;52.390;6.136;2023-11-19T07:06:10;100658.91;;;11.63;100.00
37202;BME280;37799;52.390;6.136;2023-11-19T07:08:35;100668.34;;;11.66;100.00
37202;BME280;37799;52.390;6.136;2023-11-19T07:11:01;100668.84;;;11.50;100.00
37202;BME280;37799;52.390;6.136;2023-11-19T07:13:27;100672.13;;;11.56;100.00
37202;BME280;37799;52.390;6.136;2023-11-19T07:15:53;100677.34;;;11.54;100.00
37202;BME280;37799;52.390;6.136;2023-11-19T07:18:19;100673.06;;;11.53;100.00
37202;BME280;37799;52.390;6.136;2023-11-19T07:20:47;100672.06;;;11.31;100.00
37202;BME280;37799;52.390;6.136;2023-11-19T07:23:12;100682.69;;;11.49;100.00
37202;BME280;37799;52.390;6.136;2023-11-19T07:25:40;100683.66;;;11.47;100.00
37202;BME280;37799;52.390;6.136;2023-11-19T07:28:05;100684.41;;;11.50;100.00
37202;BME280;37799;52.390;6.136;2023-11-19T07:30:30;100689.47;;;11.53;100.00
37202;BME280;37799;52.390;6.136;2023-11-19T07:32:56;100691.00;;;11.33;100.00
37202;BME280;37799;52.390;6.136;2023-11-19T07:35:21;100693.72;;;11.56;100.00
37202;BME280;37799;52.390;6.136;2023-11-19T07:37:47;100695.50;;;11.54;100.00
37202;BME280;37799;52.390;6.136;2023-11-19T07:40:13;100700.59;;;11.57;100.00
37202;BME280;37799;52.390;6.136;2023-11-19T07:42:38;100700.19;;;11.69;100.00
37202;BME280;37799;52.390;6.136;2023-11-19T07:45:04;100709.84;;;11.66;100.00
37202;BME280;37799;52.390;6.136;2023-11-19T07:47:30;100700.81;;;11.51;100.00
37202;BME280;37799;52.390;6.136;2023-11-19T07:49:56;100705.72;;;11.59;100.00
37202;BME280;37799;52.390;6.136;2023-11-19T07:52:21;100700.41;;;11.63;100.00
37202;BME280;37799;52.390;6.136;2023-11-19T07:54:46;100708.41;;;11.84;100.00
37202;BME280;37799;52.390;6.136;2023-11-19T07:57:12;100704.41;;;11.73;100.00
37202;BME280;37799;52.390;6.136;2023-11-19T07:59:37;100702.59;;;11.75;100.00
37202;BME280;37799;52.390;6.136;2023-11-19T08:02:02;100710.06;;;11.86;100.00
37202;BME280;37799;52.390;6.136;2023-11-19T08:04:28;100710.06;;;11.86;100.00
37202;BME280;37799;52.390;6.136;2023-11-19T08:06:54;100709.34;;;11.81;100.00
37202;BME280;37799;52.390;6.136;2023-11-19T08:09:19;100717.88;;;11.85;100.00
37202;BME280;37799;52.390;6.136;2023-11-19T08:11:44;100717.63;;;11.92;100.00
37202;BME280;37799;52.390;6.136;2023-11-19T08:14:11;100719.69;;;11.82;100.00
37202;BME280;37799;52.390;6.136;2023-11-19T08:16:36;100716.00;;;11.90;100.00
37202;BME280;37799;52.390;6.136;2023-11-19T08:19:03;100725.38;;;11.94;100.00
37202;BME280;37799;52.390;6.136;2023-11-19T08:21:28;100720.56;;;12.08;100.00
37202;BME280;37799;52.390;6.136;2023-11-19T08:23:53;100728.28;;;12.09;100.00
37202;BME280;37799;52.390;6.136;2023-11-19T08:26:19;100727.72;;;12.01;100.00
37202;BME280;37799;52.390;6.136;2023-11-19T08:28:44;100723.69;;;12.18;100.00
37202;BME280;37799;52.390;6.136;2023-11-19T08:31:09;100723.59;;;12.21;100.00
37202;BME280;37799;52.390;6.136;2023-11-19T08:33:34;100712.03;;;12.29;100.00
37202;BME280;37799;52.390;6.136;2023-11-19T08:36:00;100718.13;;;12.28;100.00
37202;BME280;37799;52.390;6.136;2023-11-19T08:38:26;100711.25;;;12.27;100.00
37202;BME280;37799;52.390;6.136;2023-11-19T08:40:51;100706.63;;;12.35;100.00
37202;BME280;37799;52.390;6.136;2023-11-19T08:43:17;100704.63;;;12.44;100.00
37202;BME280;37799;52.390;6.136;2023-11-19T08:45:42;100708.66;;;12.52;100.00
37202;BME280;37799;52.390;6.136;2023-11-19T08:48:08;100706.53;;;12.62;100.00
37202;BME280;37799;52.390;6.136;2023-11-19T08:50:33;100709.53;;;12.75;100.00
37202;BME280;37799;52.390;6.136;2023-11-19T08:52:58;100714.00;;;12.71;100.00
37202;BME280;37799;52.390;6.136;2023-11-19T08:55:24;100711.06;;;12.57;100.00
37202;BME280;37799;52.390;6.136;2023-11-19T08:57:49;100704.75;;;12.64;100.00
37202;BME280;37799;52.390;6.136;2023-11-19T09:00:14;100711.19;;;12.77;100.00
37202;BME280;37799;52.390;6.136;2023-11-19T09:02:40;100710.50;;;12.72;100.00
37202;BME280;37799;52.390;6.136;2023-11-19T09:05:05;100712.31;;;12.70;100.00
37202;BME280;37799;52.390;6.136;2023-11-19T09:07:32;100712.25;;;12.72;100.00
37202;BME280;37799;52.390;6.136;2023-11-19T09:09:58;100713.53;;;12.60;100.00
37202;BME280;37799;52.390;6.136;2023-11-19T09:12:23;100716.91;;;12.63;100.00
37202;BME280;37799;52.390;6.136;2023-11-19T09:14:49;100717.31;;;12.76;100.00
37202;BME280;37799;52.390;6.136;2023-11-19T09:17:14;100724.56;;;12.66;100.00
37202;BME280;37799;52.390;6.136;2023-11-19T09:19:40;100721.97;;;12.66;100.00
37202;BME280;37799;52.390;6.136;2023-11-19T09:22:05;100714.00;;;12.71;100.00
37202;BME280;37799;52.390;6.136;2023-11-19T09:24:31;100730.31;;;12.75;100.00
37202;BME280;37799;52.390;6.136;2023-11-19T09:26:56;100722.44;;;12.78;100.00
37202;BME280;37799;52.390;6.136;2023-11-19T09:29:22;100724.22;;;12.99;100.00
37202;BME280;37799;52.390;6.136;2023-11-19T09:31:48;100722.00;;;13.12;100.00
37202;BME280;37799;52.390;6.136;2023-11-19T09:34:14;100717.59;;;13.14;100.00
37202;BME280;37799;52.390;6.136;2023-11-19T09:36:39;100723.53;;;13.17;100.00
37202;BME280;37799;52.390;6.136;2023-11-19T09:39:09;100727.91;;;12.93;100.00
37202;BME280;37799;52.390;6.136;2023-11-19T09:41:34;100718.75;;;13.07;100.00
37202;BME280;37799;52.390;6.136;2023-11-19T09:44:00;100711.91;;;13.04;100.00
37202;BME280;37799;52.390;6.136;2023-11-19T09:46:26;100730.38;;;12.96;100.00
37202;BME280;37799;52.390;6.136;2023-11-19T09:48:53;100717.44;;;12.95;100.00
37202;BME280;37799;52.390;6.136;2023-11-19T09:51:21;100716.25;;;13.04;100.00
37202;BME280;37799;52.390;6.136;2023-11-19T09:53:49;100712.19;;;13.20;100.00
37202;BME280;37799;52.390;6.136;2023-11-19T09:56:15;100708.16;;;13.35;100.00
37202;BME280;37799;52.390;6.136;2023-11-19T09:58:42;100711.59;;;13.35;100.00
37202;BME280;37799;52.390;6.136;2023-11-19T10:01:07;100709.28;;;13.49;100.00
37202;BME280;37799;52.390;6.136;2023-11-19T10:03:35;100713.59;;;13.50;100.00
37202;BME280;37799;52.390;6.136;2023-11-19T10:06:07;100709.56;;;13.43;100.00
37202;BME280;37799;52.390;6.136;2023-11-19T10:08:33;100713.00;;;13.44;100.00
37202;BME280;37799;52.390;6.136;2023-11-19T10:10:59;100719.97;;;13.43;100.00
37202;BME280;37799;52.390;6.136;2023-11-19T10:13:31;100716.44;;;13.44;100.00
37202;BME280;37799;52.390;6.136;2023-11-19T10:15:56;100707.88;;;13.42;100.00
37202;BME280;37799;52.390;6.136;2023-11-19T10:18:26;100704.78;;;13.54;100.00
37202;BME280;37799;52.390;6.136;2023-11-19T10:20:52;100701.41;;;13.73;100.00
37202;BME280;37799;52.390;6.136;2023-11-19T10:23:17;100706.81;;;13.88;100.00
37202;BME280;37799;52.390;6.136;2023-11-19T10:25:43;100708.44;;;13.91;100.00
37202;BME280;37799;52.390;6.136;2023-11-19T10:28:08;100699.72;;;13.92;100.00
37202;BME280;37799;52.390;6.136;2023-11-19T10:30:33;100707.09;;;13.82;100.00
37202;BME280;37799;52.390;6.136;2023-11-19T10:35:28;100710.91;;;13.74;100.00
37202;BME280;37799;52.390;6.136;2023-11-19T10:37:54;100707.38;;;13.54;100.00
37202;BME280;37799;52.390;6.136;2023-11-19T10:40:19;100697.06;;;13.51;100.00
37202;BME280;37799;52.390;6.136;2023-11-19T10:42:45;100705.06;;;13.47;100.00
37202;BME280;37799;52.390;6.136;2023-11-19T10:45:22;100705.78;;;13.50;100.00
37202;BME280;37799;52.390;6.136;2023-11-19T10:47:51;100698.88;;;13.49;100.00
37202;BME280;37799;52.390;6.136;2023-11-19T10:50:16;100703.38;;;13.68;100.00
37202;BME280;37799;52.390;6.136;2023-11-19T10:52:43;100702.41;;;13.48;100.00
37202;BME280;37799;52.390;6.136;2023-11-19T10:55:11;100698.47;;;13.60;100.00
37202;BME280;37799;52.390;6.136;2023-11-19T10:57:43;100700.09;;;13.63;100.00
37202;BME280;37799;52.390;6.136;2023-11-19T11:00:11;100700.56;;;13.50;100.00
37202;BME280;37799;52.390;6.136;2023-11-19T11:02:41;100703.97;;;13.52;100.00
37202;BME280;37799;52.390;6.136;2023-11-19T11:05:07;100691.22;;;13.46;100.00
37202;BME280;37799;52.390;6.136;2023-11-19T11:07:33;100700.59;;;13.28;100.00
37202;BME280;37799;52.390;6.136;2023-11-19T11:10:00;100695.50;;;13.47;100.00
37202;BME280;37799;52.390;6.136;2023-11-19T11:12:27;100700.00;;;13.44;100.00
37202;BME280;37799;52.390;6.136;2023-11-19T11:14:54;100700.56;;;13.50;100.00
37202;BME280;37799;52.390;6.136;2023-11-19T11:17:20;100690.78;;;13.35;100.00
37202;BME280;37799;52.390;6.136;2023-11-19T11:19:49;100684.25;;;13.47;100.00
37202;BME280;37799;52.390;6.136;2023-11-19T11:22:16;100684.44;;;13.42;100.00
37202;BME280;37799;52.390;6.136;2023-11-19T11:24:50;100673.25;;;13.18;100.00
37202;BME280;37799;52.390;6.136;2023-11-19T11:33:40;100659.66;;;13.54;100.00
37202;BME280;37799;52.390;6.136;2023-11-19T11:36:19;100667.31;;;13.37;100.00
37202;BME280;37799;52.390;6.136;2023-11-19T11:38:48;100678.34;;;13.43;100.00
37202;BME280;37799;52.390;6.136;2023-11-19T11:41:21;100680.38;;;13.35;100.00
37202;BME280;37799;52.390;6.136;2023-11-19T11:43:51;100687.69;;;13.47;100.00
37202;BME280;37799;52.390;6.136;2023-11-19T11:49:08;100672.63;;;13.55;100.00
37202;BME280;37799;52.390;6.136;2023-11-19T11:54:08;100670.44;;;13.87;100.00
37202;BME280;37799;52.390;6.136;2023-11-19T11:56:37;100666.41;;;13.80;100.00
37202;BME280;37799;52.390;6.136;2023-11-19T11:59:03;100670.44;;;13.87;100.00
37202;BME280;37799;52.390;6.136;2023-11-19T12:01:29;100662.38;;;13.73;100.00
37202;BME280;37799;52.390;6.136;2023-11-19T12:03:56;100667.81;;;13.67;100.00
37202;BME280;37799;52.390;6.136;2023-11-19T12:06:22;100667.72;;;13.70;100.00
37202;BME280;37799;52.390;6.136;2023-11-19T12:08:47;100668.50;;;13.72;100.00
37202;BME280;37799;52.390;6.136;2023-11-19T12:11:12;100673.75;;;13.91;100.00
37202;BME280;37799;52.390;6.136;2023-11-19T12:13:55;100671.59;;;13.80;100.00
37202;BME280;37799;52.390;6.136;2023-11-19T12:16:23;100669.41;;;13.91;100.00
37202;BME280;37799;52.390;6.136;2023-11-19T12:18:48;100665.72;;;13.97;100.00
37202;BME280;37799;52.390;6.136;2023-11-19T12:21:28;100667.06;;;14.05;100.00
37202;BME280;37799;52.390;6.136;2023-11-19T12:23:55;100665.09;;;13.90;100.00
37202;BME280;37799;52.390;6.136;2023-11-19T12:26:37;100664.41;;;14.07;100.00
37202;BME280;37799;52.390;6.136;2023-11-19T12:29:02;100669.28;;;13.94;100.00
37202;BME280;37799;52.390;6.136;2023-11-19T12:31:31;100658.28;;;13.87;100.00
37202;BME280;37799;52.390;6.136;2023-11-19T12:33:56;100671.56;;;14.02;100.00
37202;BME280;37799;52.390;6.136;2023-11-19T12:36:22;100655.69;;;14.08;100.00
37202;BME280;37799;52.390;6.136;2023-11-19T12:38:48;100662.91;;;14.22;100.00
37202;BME280;37799;52.390;6.136;2023-11-19T12:41:13;100655.84;;;14.24;100.00
37202;BME280;37799;52.390;6.136;2023-11-19T12:43:43;100665.03;;;14.32;100.00
37202;BME280;37799;52.390;6.136;2023-11-19T12:46:21;100666.84;;;14.30;100.00
37202;BME280;37799;52.390;6.136;2023-11-19T12:48:48;100658.16;;;14.11;100.00
37202;BME280;37799;52.390;6.136;2023-11-19T12:51:13;100659.53;;;14.20;100.00